CN-0158 weather

Longtian/Lung-T'ien Air Base
Fujian Province, China

Public forecast

Using degrees Celsius for public forecast. Weather courtesy of forecast.io.

Closest aviation weather report (METAR) to Longtian/Lung-T'ien Air Base

Closest report is Fuzhou Changle International Airport, 24.4 nm (45.1 km) NNE. Retrieved 2019/10/15 20:00 UTC (16 minutes ago):

ZSFZ 152000Z 02006MPS 9999 BKN050 21/09 Q1021 NOSIG

Closest aviation forecast (TAF) to Longtian/Lung-T'ien Air Base

Closest forecast is Fuzhou Changle International Airport, 24.4 nm (45.1 km) NNE. Retrieved 2019/10/15 18:00 UTC (2 hours ago):

TAF ZSFZ 151503Z 1518/1618 04009MPS 3000 BR BKN015 TX26/1606Z TN17/1521Z BECMG 1609/1611 04004MPS